首页
METAR-TAF:

METAR-TAF

机场 :

Caldwell Industrial Airport

Caldwell, 爱达荷州, 美国

纬度: 43-38N, 经度: 116-38W, 海拔: 740米

当前天气观测

该预报发布于18分钟前的04:56 UTC
风速6节,风向多变
温度 25°C
湿度 36%
气压 1010 hPa
能見度: 16.1公里
天空无云

METAR: KEUL 180456Z AUTO VRB06KT 10SM CLR 25/09 A2982 RMK AO2 SLP076 T02500089

时间: 23:14 (05:14 UTC)

预报

该预报发布于4小时和10分钟前的01:04 UTC
预报有效从18日的 01点(UTC)到 18日的 24点(UTC)
风速7节,风向西北
能見度: 10公里
少量云层高于10000英尺
从 18日的 0300点(UTC)
风速8节,风向西转西北
能見度: 10公里
天空无云
从 18日的 2100点(UTC)
风速10节,风向北转西北
能見度: 10公里
少量云层高于10000英尺

TAF: KEUL 180104Z 1801/1824 32007KT P6SM FEW100 FM180300 29008KT P6SM SKC FM182100 34010KT P6SM FEW100

超过4000个机场的气象观测和天气预报(METAR&TAF报告)。

可查询的气象台以黄色和红色小点在地图上表示。

将鼠标移到小点上方,可查看气象台名称。

然后点击查看天气观测和预报。

如需切换地图:点击带黑十字的绿色按钮放大地图;点击带横线的绿色按钮缩小地图;或者点击绿色箭头查看邻近地区的地图。


METAR-TAF: